createdAt,value
2019-05-06T00:02:13.805Z,100904.59
2019-05-06T00:05:04.112Z,100910.75
2019-05-06T00:10:47.007Z,100902.87
2019-05-06T00:13:15.402Z,100900.39
2019-05-06T00:16:03.921Z,100903.44
2019-05-06T00:18:34.195Z,100901.81
2019-05-06T00:21:24.434Z,100894.99
2019-05-06T00:27:00.879Z,100893.97
2019-05-06T00:29:48.392Z,100888.54
2019-05-06T00:34:55.464Z,100885.58
2019-05-06T00:37:44.234Z,100887.77
2019-05-06T00:40:51.567Z,100885.03
2019-05-06T00:43:39.219Z,100890.42
2019-05-06T00:46:07.615Z,100885.04
2019-05-06T00:48:55.132Z,100893.05
2019-05-06T00:52:04.245Z,100889.77
2019-05-06T00:55:13.772Z,100883.64
2019-05-06T00:57:44.074Z,100885.22
2019-05-06T01:00:54.004Z,100885.02
2019-05-06T01:03:24.061Z,100891.00
2019-05-06T01:06:34.475Z,100886.34
2019-05-06T01:12:11.963Z,100887.85
2019-05-06T01:17:48.698Z,100876.95
2019-05-06T01:20:56.998Z,100880.44
2019-05-06T01:23:25.405Z,100879.35
2019-05-06T01:25:54.592Z,100881.91
2019-05-06T01:28:24.477Z,100880.66
2019-05-06T01:31:14.006Z,100876.00
2019-05-06T01:36:38.524Z,100883.82
2019-05-06T01:39:46.821Z,100882.94
2019-05-06T01:42:34.547Z,100882.55
2019-05-06T01:45:04.716Z,100880.69
2019-05-06T01:47:54.289Z,100879.26
2019-05-06T01:50:23.503Z,100885.52
2019-05-06T01:53:11.524Z,100878.58
2019-05-06T01:58:46.617Z,100879.25
2019-05-06T02:01:15.129Z,100879.98
2019-05-06T02:04:04.467Z,100878.28
2019-05-06T02:09:46.775Z,100874.57
2019-05-06T02:12:15.184Z,100874.45
2019-05-06T02:14:43.780Z,100874.78
2019-05-06T02:17:14.436Z,100873.47
2019-05-06T02:25:49.881Z,100871.17
2019-05-06T02:28:18.285Z,100869.03
2019-05-06T02:31:05.801Z,100868.69
2019-05-06T02:36:48.577Z,100870.80
2019-05-06T02:39:36.100Z,100863.69
2019-05-06T02:42:44.417Z,100860.75
2019-05-06T02:45:53.193Z,100859.64
2019-05-06T02:54:34.526Z,100865.89
2019-05-06T02:57:04.249Z,100862.56
2019-05-06T03:04:43.767Z,100860.22
2019-05-06T03:10:18.366Z,100855.41
2019-05-06T03:12:46.768Z,100853.17
2019-05-06T03:15:55.111Z,100851.55
2019-05-06T03:18:23.856Z,100852.41
2019-05-06T03:21:13.802Z,100861.53
2019-05-06T03:26:43.859Z,100854.62
2019-05-06T03:29:33.178Z,100852.33
2019-05-06T03:32:24.635Z,100847.25
2019-05-06T03:35:09.027Z,100848.02
2019-05-06T03:37:19.885Z,100848.07
2019-05-06T03:39:48.309Z,100848.44
2019-05-06T03:45:44.082Z,100840.63
2019-05-06T03:48:33.330Z,100838.55
2019-05-06T03:51:04.056Z,100838.00
2019-05-06T03:54:12.773Z,100836.98
2019-05-06T03:57:23.220Z,100838.55
2019-05-06T04:00:33.354Z,100833.52
2019-05-06T04:05:56.164Z,100842.19
2019-05-06T04:08:24.574Z,100836.41
2019-05-06T04:11:35.881Z,100835.27
2019-05-06T04:17:37.269Z,100838.48
2019-05-06T04:20:45.578Z,100832.83
2019-05-06T04:23:33.432Z,100835.87
2019-05-06T04:26:46.095Z,100837.63
2019-05-06T04:29:33.105Z,100836.16
2019-05-06T04:32:23.248Z,100828.86
2019-05-06T04:38:03.807Z,100830.73
2019-05-06T04:41:13.608Z,100824.30
2019-05-06T04:43:43.947Z,100826.50
2019-05-06T04:46:34.847Z,100841.88
2019-05-06T04:49:43.633Z,100842.39
2019-05-06T04:54:59.216Z,100841.77
2019-05-06T04:57:46.861Z,100848.07
2019-05-06T05:00:55.177Z,100845.41
2019-05-06T05:03:42.901Z,100852.80
2019-05-06T05:06:32.665Z,100854.45
2019-05-06T05:09:02.798Z,100855.23
2019-05-06T05:14:28.852Z,100860.05
2019-05-06T05:20:46.767Z,100860.09
2019-05-06T05:23:34.584Z,100857.55
2019-05-06T05:26:22.547Z,100858.81
2019-05-06T05:32:38.971Z,100870.16
2019-05-06T05:35:47.289Z,100859.74
2019-05-06T05:38:34.825Z,100860.63
2019-05-06T05:41:03.245Z,100858.73
2019-05-06T05:46:39.700Z,100854.36
2019-05-06T05:55:49.141Z,100867.73
2019-05-06T06:02:05.516Z,100866.61
2019-05-06T06:04:57.305Z,100860.16
2019-05-06T06:07:23.278Z,100864.04
2019-05-06T06:10:33.198Z,100858.09
2019-05-06T06:16:08.272Z,100863.35
2019-05-06T06:18:55.783Z,100862.53
2019-05-06T06:22:02.826Z,100864.94
2019-05-06T06:24:52.454Z,100861.94
2019-05-06T06:27:58.956Z,100858.83
2019-05-06T06:31:05.731Z,100857.86
2019-05-06T06:33:34.136Z,100864.30
2019-05-06T06:36:41.862Z,100874.04
2019-05-06T06:41:59.473Z,100884.45
2019-05-06T06:44:47.001Z,100875.51
2019-05-06T06:47:34.887Z,100878.88
2019-05-06T06:56:25.009Z,100876.25
2019-05-06T06:59:33.319Z,100879.09
2019-05-06T07:10:54.504Z,100881.71
2019-05-06T07:13:42.065Z,100878.02
2019-05-06T07:16:29.672Z,100880.24
2019-05-06T07:18:58.070Z,100886.56
2019-05-06T07:21:45.588Z,100884.33
2019-05-06T07:24:33.361Z,100878.77
2019-05-06T07:27:22.687Z,100884.16
2019-05-06T07:29:52.254Z,100871.34
2019-05-06T07:32:23.062Z,100870.24
2019-05-06T07:34:53.162Z,100874.75
2019-05-06T07:40:15.788Z,100867.09
2019-05-06T07:45:58.280Z,100859.84
2019-05-06T07:51:21.145Z,100861.09
2019-05-06T08:00:12.566Z,100873.45
2019-05-06T08:02:42.602Z,100858.69
2019-05-06T08:05:58.219Z,100855.98
2019-05-06T08:08:23.017Z,100860.70
2019-05-06T08:10:52.713Z,100861.78
2019-05-06T08:13:22.695Z,100859.30
2019-05-06T08:19:02.665Z,100864.70
2019-05-06T08:24:44.628Z,100865.95
2019-05-06T08:27:32.984Z,100870.00
2019-05-06T08:30:43.037Z,100871.20
2019-05-06T08:33:12.912Z,100867.25
2019-05-06T08:41:08.884Z,100861.34
2019-05-06T08:43:56.414Z,100859.31
2019-05-06T08:47:04.765Z,100870.84
2019-05-06T08:57:33.217Z,100862.66
2019-05-06T09:02:49.066Z,100860.45
2019-05-06T09:05:17.459Z,100858.19
2019-05-06T09:08:04.995Z,100850.53
2019-05-06T09:10:33.396Z,100861.09
2019-05-06T09:13:02.107Z,100850.47
2019-05-06T09:15:32.715Z,100852.94
2019-05-06T09:20:36.681Z,100848.04
2019-05-06T09:23:05.083Z,100851.48
2019-05-06T09:28:42.495Z,100850.90
2019-05-06T09:31:48.541Z,100844.09
2019-05-06T09:34:36.059Z,100842.12
2019-05-06T09:37:24.278Z,100839.69
2019-05-06T09:39:53.809Z,100843.47
2019-05-06T09:42:23.828Z,100834.32
2019-05-06T09:44:53.999Z,100839.34
2019-05-06T09:50:53.517Z,100827.80
2019-05-06T09:54:03.263Z,100828.14
2019-05-06T09:57:09.912Z,100831.92
2019-05-06T09:59:57.562Z,100836.01
2019-05-06T10:02:45.084Z,100829.66
2019-05-06T10:05:53.397Z,100830.75
2019-05-06T10:08:41.047Z,100835.73
2019-05-06T10:13:56.896Z,100825.84
2019-05-06T10:16:25.298Z,100823.91
2019-05-06T10:19:13.391Z,100818.21
2019-05-06T10:24:52.150Z,100818.03
2019-05-06T10:27:22.596Z,100817.18
2019-05-06T10:32:47.923Z,100820.16
2019-05-06T10:35:56.232Z,100811.58
2019-05-06T10:39:04.872Z,100822.27
2019-05-06T10:42:13.579Z,100820.23
2019-05-06T10:45:23.217Z,100803.12
2019-05-06T10:48:12.757Z,100816.81
2019-05-06T10:51:00.111Z,100814.84
2019-05-06T10:53:28.506Z,100811.23
2019-05-06T10:56:49.937Z,100818.33
2019-05-06T10:59:24.616Z,100816.00
2019-05-06T11:05:20.831Z,100811.09
2019-05-06T11:07:49.227Z,100806.53
2019-05-06T11:10:41.183Z,100805.56
2019-05-06T11:16:17.044Z,100809.34
2019-05-06T11:18:45.691Z,100807.70
2019-05-06T11:21:14.089Z,100809.48
2019-05-06T11:23:42.482Z,100828.28
2019-05-06T11:26:13.005Z,100812.72
2019-05-06T11:31:55.207Z,100830.57
2019-05-06T11:39:53.993Z,100812.88
2019-05-06T11:42:43.720Z,100815.70
2019-05-06T11:45:52.132Z,100812.41
2019-05-06T11:48:22.333Z,100821.41
2019-05-06T11:53:32.604Z,100825.27
2019-05-06T11:56:48.700Z,100821.45
2019-05-06T12:02:19.069Z,100837.26
2019-05-06T12:04:47.487Z,100837.30
2019-05-06T12:07:35.011Z,100844.08
2019-05-06T12:10:22.664Z,100843.69
2019-05-06T12:15:38.517Z,100862.10
2019-05-06T12:18:26.155Z,100847.41
2019-05-06T12:23:48.207Z,100845.91
2019-05-06T12:26:16.601Z,100842.59
2019-05-06T12:28:45.002Z,100837.94
2019-05-06T12:31:33.012Z,100838.44
2019-05-06T12:34:02.944Z,100834.58
2019-05-06T12:36:33.077Z,100831.13
2019-05-06T12:39:23.023Z,100833.87
2019-05-06T12:42:23.094Z,100832.55
2019-05-06T12:52:36.476Z,100828.48
2019-05-06T12:55:45.041Z,100835.55
2019-05-06T12:58:13.863Z,100837.34
2019-05-06T13:00:44.940Z,100828.97
2019-05-06T13:03:13.702Z,100833.16
2019-05-06T13:06:07.266Z,100846.23
2019-05-06T13:08:49.849Z,100865.05
2019-05-06T13:11:20.866Z,100860.05
2019-05-06T13:16:36.707Z,100859.17
2019-05-06T13:19:24.420Z,100853.73
2019-05-06T13:21:52.824Z,100849.89
2019-05-06T13:24:40.462Z,100847.92
2019-05-06T13:29:47.769Z,100847.64
2019-05-06T13:32:35.295Z,100853.05
2019-05-06T13:37:57.862Z,100849.88
2019-05-06T13:40:53.842Z,100854.42
2019-05-06T13:43:34.617Z,100849.05
2019-05-06T13:49:17.069Z,100855.76
2019-05-06T13:52:05.017Z,100859.89
2019-05-06T13:54:53.087Z,100862.73
2019-05-06T13:57:21.561Z,100858.36
2019-05-06T14:00:09.244Z,100853.87
2019-05-06T14:02:56.761Z,100855.23
2019-05-06T14:08:19.615Z,100855.28
2019-05-06T14:10:56.679Z,100854.18
2019-05-06T14:13:18.165Z,100858.33
2019-05-06T14:21:26.731Z,100859.70
2019-05-06T14:27:03.345Z,100867.83
2019-05-06T14:29:53.017Z,100878.59
2019-05-06T14:32:40.109Z,100878.12
2019-05-06T14:35:48.417Z,100878.15
2019-05-06T14:38:35.949Z,100885.91
2019-05-06T14:41:27.154Z,100883.92
2019-05-06T14:44:12.850Z,100884.77
2019-05-06T14:47:00.382Z,100882.89
2019-05-06T14:52:35.342Z,100874.24
2019-05-06T14:55:43.814Z,100882.02
2019-05-06T15:03:42.953Z,100860.73
2019-05-06T15:09:17.842Z,100858.91
2019-05-06T15:11:46.248Z,100854.88
2019-05-06T15:14:14.648Z,100849.66
2019-05-06T15:17:02.415Z,100847.16
2019-05-06T15:19:30.843Z,100845.80
2019-05-06T15:22:18.589Z,100840.23
2019-05-06T15:25:06.104Z,100840.06
2019-05-06T15:27:53.756Z,100838.02
2019-05-06T15:31:03.248Z,100844.35
2019-05-06T15:33:52.889Z,100842.18
2019-05-06T15:36:40.552Z,100838.78
2019-05-06T15:39:28.201Z,100836.77
2019-05-06T15:42:15.725Z,100846.52
2019-05-06T15:45:03.243Z,100837.37
2019-05-06T15:47:52.341Z,100838.58
2019-05-06T15:50:43.263Z,100835.20
2019-05-06T15:53:30.105Z,100836.33
2019-05-06T15:55:58.505Z,100837.34
2019-05-06T15:58:46.167Z,100836.69
2019-05-06T16:01:34.378Z,100825.88
2019-05-06T16:04:23.202Z,100825.95
2019-05-06T16:06:52.856Z,100827.23
2019-05-06T16:09:23.459Z,100828.21
2019-05-06T16:11:53.434Z,100828.68
2019-05-06T16:14:23.032Z,100822.42
2019-05-06T16:17:12.321Z,100822.98
2019-05-06T16:19:42.722Z,100815.52
2019-05-06T16:22:11.427Z,100816.39
2019-05-06T16:24:58.962Z,100814.47
2019-05-06T16:27:27.360Z,100814.95
2019-05-06T16:29:55.771Z,100807.20
2019-05-06T16:32:43.580Z,100815.53
2019-05-06T16:35:32.291Z,100824.42
2019-05-06T16:38:02.349Z,100819.47
2019-05-06T16:40:45.396Z,100826.77
2019-05-06T16:45:48.107Z,100814.88
2019-05-06T16:48:35.857Z,100818.48
2019-05-06T16:51:23.500Z,100825.37
2019-05-06T16:53:52.563Z,100817.45
2019-05-06T16:59:11.111Z,100823.28
2019-05-06T17:04:47.719Z,100824.33
2019-05-06T17:07:35.364Z,100829.02
2019-05-06T17:10:43.675Z,100832.67
2019-05-06T17:13:33.501Z,100831.55
2019-05-06T17:16:02.516Z,100833.34
2019-05-06T17:21:19.401Z,100822.11
2019-05-06T17:23:47.807Z,100828.55
2019-05-06T17:26:35.541Z,100833.43
2019-05-06T17:29:43.865Z,100834.11
2019-05-06T17:35:39.712Z,100835.43
2019-05-06T17:38:27.220Z,100837.02
2019-05-06T17:41:14.813Z,100837.13
2019-05-06T17:57:32.782Z,100853.65
2019-05-06T18:02:55.912Z,100843.42
2019-05-06T18:05:43.428Z,100842.41
2019-05-06T18:08:33.338Z,100854.21
2019-05-06T18:11:01.185Z,100849.58
2019-05-06T18:13:29.580Z,100849.41
2019-05-06T18:16:17.231Z,100843.87
2019-05-06T18:19:04.874Z,100842.45
2019-05-06T18:27:02.620Z,100845.28
2019-05-06T18:29:33.432Z,100849.63
2019-05-06T18:32:23.402Z,100850.06
2019-05-06T18:34:52.772Z,100847.00
2019-05-06T18:37:42.644Z,100848.48
2019-05-06T18:40:52.847Z,100849.52
2019-05-06T18:43:42.056Z,100856.42
2019-05-06T18:46:29.394Z,100853.50
2019-05-06T18:49:17.038Z,100857.70
2019-05-06T18:54:59.012Z,100849.95
2019-05-06T18:57:27.402Z,100848.39
2019-05-06T19:00:15.051Z,100848.48
2019-05-06T19:05:50.005Z,100857.30
2019-05-06T19:08:37.535Z,100861.09
2019-05-06T19:11:25.304Z,100863.09
2019-05-06T19:13:53.716Z,100864.67
2019-05-06T19:16:22.408Z,100874.50
2019-05-06T19:21:58.920Z,100877.14
2019-05-06T19:24:27.315Z,100880.61
2019-05-06T19:29:29.515Z,100881.33
2019-05-06T19:31:57.936Z,100881.23
2019-05-06T19:34:26.384Z,100876.67
2019-05-06T19:37:14.033Z,100882.25
2019-05-06T19:40:22.994Z,100878.46
2019-05-06T19:45:42.176Z,100872.66
2019-05-06T19:48:29.140Z,100883.88
2019-05-06T19:53:32.354Z,100885.47
2019-05-06T19:56:02.744Z,100882.95
2019-05-06T19:58:33.991Z,100883.02
2019-05-06T20:01:42.962Z,100885.88
2019-05-06T20:07:22.734Z,100891.86
2019-05-06T20:10:29.055Z,100893.52
2019-05-06T20:15:46.531Z,100899.74
2019-05-06T20:21:02.371Z,100905.56
2019-05-06T20:23:52.467Z,100894.00
2019-05-06T20:26:21.953Z,100894.92
2019-05-06T20:29:09.738Z,100882.05
2019-05-06T20:34:32.104Z,100887.69
2019-05-06T20:37:02.049Z,100878.80
2019-05-06T20:39:49.979Z,100881.60
2019-05-06T20:45:53.321Z,100874.00
2019-05-06T20:51:49.029Z,100884.63
2019-05-06T20:59:39.057Z,100879.38
2019-05-06T21:04:43.193Z,100873.03
2019-05-06T21:07:12.422Z,100874.89
2019-05-06T21:10:02.197Z,100874.07
2019-05-06T21:12:50.468Z,100876.05
2019-05-06T21:18:27.017Z,100874.41
2019-05-06T21:24:02.207Z,100878.22
2019-05-06T21:26:49.844Z,100879.83
2019-05-06T21:29:18.223Z,100880.92
2019-05-06T21:32:05.902Z,100886.79
2019-05-06T21:34:34.262Z,100884.55
2019-05-06T21:37:22.871Z,100882.78
2019-05-06T21:39:52.960Z,100887.98
2019-05-06T21:45:15.078Z,100883.41
2019-05-06T21:48:02.952Z,100886.29
2019-05-06T21:50:33.058Z,100878.29
2019-05-06T21:55:56.538Z,100885.80
2019-05-06T22:06:45.644Z,100883.80
2019-05-06T22:12:24.539Z,100890.91
2019-05-06T22:14:53.468Z,100887.97
2019-05-06T22:17:22.566Z,100880.53
2019-05-06T22:19:52.488Z,100880.68
2019-05-06T22:27:36.179Z,100868.75
2019-05-06T22:30:44.495Z,100870.94
2019-05-06T22:35:47.244Z,100868.05
2019-05-06T22:38:34.912Z,100871.23
2019-05-06T22:41:23.049Z,100868.23
2019-05-06T22:43:53.242Z,100866.67
2019-05-06T22:47:02.842Z,100865.60
2019-05-06T22:55:03.748Z,100864.53
2019-05-06T22:57:30.058Z,100864.72
2019-05-06T22:59:58.490Z,100865.34
2019-05-06T23:05:15.950Z,100863.65
2019-05-06T23:08:03.637Z,100866.33
2019-05-06T23:10:33.736Z,100871.23
2019-05-06T23:13:03.087Z,100869.08
2019-05-06T23:15:52.397Z,100873.38
2019-05-06T23:23:30.124Z,100866.14
2019-05-06T23:26:17.639Z,100871.09
2019-05-06T23:29:05.312Z,100868.36
2019-05-06T23:31:52.961Z,100868.30
2019-05-06T23:34:40.629Z,100862.95
2019-05-06T23:37:48.963Z,100868.21
2019-05-06T23:40:55.951Z,100871.61
2019-05-06T23:44:02.966Z,100870.36
2019-05-06T23:47:09.934Z,100875.36
2019-05-06T23:50:16.930Z,100870.36
2019-05-06T23:53:23.917Z,100871.84
2019-05-06T23:56:32.654Z,100876.89
2019-05-06T23:59:01.046Z,100883.72
